Time;durP1;ratioP1;P1;durP2;ratioP2;P2;SDS_P1;SDS_P2;PMS_P1;PMS_P2;Temp;Humidity;BMP_temperature;BMP_pressure;BME280_temperature;BME280_humidity;BME280_pressure;Samples;Min_cycle;Max_cycle;Signal;HPM_P1;HPM_P2
2023/01/22 00:02:23;;;;;;;9.88;6.78;;;;;;;;;;5065926;28;20048;-70
2023/01/22 00:04:49;;;;;;;11.38;6.80;;;;;;;;;;5067852;28;20094;-70
2023/01/22 00:07:15;;;;;;;7.15;5.75;;;;;;;;;;5067595;28;20040;-70
2023/01/22 00:09:41;;;;;;;9.77;7.32;;;;;;;;;;5062633;28;20036;-70
2023/01/22 00:12:08;;;;;;;11.77;7.15;;;;;;;;;;5067167;28;20044;-70
2023/01/22 00:14:34;;;;;;;8.07;6.22;;;;;;;;;;5069832;28;20036;-72
2023/01/22 00:17:00;;;;;;;12.82;7.80;;;;;;;;;;5068918;28;20043;-70
2023/01/22 00:19:26;;;;;;;12.00;7.45;;;;;;;;;;5058928;28;20048;-70
2023/01/22 00:21:53;;;;;;;9.90;7.47;;;;;;;;;;5056650;28;20136;-69
2023/01/22 00:24:19;;;;;;;9.48;6.75;;;;;;;;;;5060661;28;20385;-70
2023/01/22 00:26:45;;;;;;;12.75;7.22;;;;;;;;;;5056306;28;20102;-70
2023/01/22 00:29:11;;;;;;;11.73;6.88;;;;;;;;;;5067153;28;20127;-70
2023/01/22 00:31:37;;;;;;;11.88;7.68;;;;;;;;;;5060355;28;20074;-70
2023/01/22 00:34:04;;;;;;;11.98;8.95;;;;;;;;;;5065408;28;20062;-70
2023/01/22 00:36:30;;;;;;;16.77;11.45;;;;;;;;;;5069077;28;20079;-70
2023/01/22 00:38:56;;;;;;;12.40;7.15;;;;;;;;;;5058960;28;20036;-70
2023/01/22 00:41:22;;;;;;;12.23;7.88;;;;;;;;;;5060882;28;20040;-70
2023/01/22 00:43:48;;;;;;;9.27;6.10;;;;;;;;;;5062448;28;20120;-70
2023/01/22 00:46:15;;;;;;;11.68;6.10;;;;;;;;;;5058820;28;20557;-70
2023/01/22 00:48:44;;;;;;;11.55;6.05;;;;;;;;;;5056950;28;20041;-70
2023/01/22 00:51:11;;;;;;;11.63;7.43;;;;;;;;;;5065839;28;20434;-70
2023/01/22 00:53:42;;;;;;;10.48;6.25;;;;;;;;;;5057570;28;20036;-70
2023/01/22 00:56:09;;;;;;;9.27;7.13;;;;;;;;;;5063981;28;20309;-70
2023/01/22 00:58:35;;;;;;;13.18;6.93;;;;;;;;;;5068923;28;20045;-70
2023/01/22 01:01:02;;;;;;;11.95;7.10;;;;;;;;;;5062425;28;20057;-70
2023/01/22 01:03:31;;;;;;;12.95;6.95;;;;;;;;;;5068951;28;20072;-70
2023/01/22 01:06:03;;;;;;;12.55;6.60;;;;;;;;;;5057330;28;20051;-70
2023/01/22 01:08:30;;;;;;;9.93;6.13;;;;;;;;;;5064082;28;20048;-70
2023/01/22 01:10:58;;;;;;;10.13;5.30;;;;;;;;;;5061615;28;20040;-70
2023/01/22 01:13:25;;;;;;;10.82;6.18;;;;;;;;;;5066980;28;20033;-69
2023/01/22 01:15:58;;;;;;;9.02;6.18;;;;;;;;;;5055611;28;20037;-70
2023/01/22 01:18:24;;;;;;;7.95;5.13;;;;;;;;;;5064495;28;20036;-70
2023/01/22 01:20:57;;;;;;;7.50;5.43;;;;;;;;;;5075125;28;20054;-70
2023/01/22 01:23:24;;;;;;;9.13;6.53;;;;;;;;;;5063604;28;20056;-70
2023/01/22 01:25:50;;;;;;;8.98;6.25;;;;;;;;;;5055935;28;20052;-70
2023/01/22 01:28:16;;;;;;;10.07;6.18;;;;;;;;;;5059246;28;20049;-70
2023/01/22 01:30:43;;;;;;;7.07;5.32;;;;;;;;;;5063142;28;20032;-70
2023/01/22 01:33:09;;;;;;;9.10;6.13;;;;;;;;;;5062683;28;20049;-70
2023/01/22 01:35:35;;;;;;;11.00;5.40;;;;;;;;;;5067766;28;20048;-70
2023/01/22 01:38:01;;;;;;;12.85;5.95;;;;;;;;;;5057305;28;20028;-71
2023/01/22 01:40:27;;;;;;;9.55;6.18;;;;;;;;;;5067809;28;20583;-70
2023/01/22 01:42:53;;;;;;;8.55;5.80;;;;;;;;;;5073120;28;20467;-69
2023/01/22 01:45:33;;;;;;;10.10;5.53;;;;;;;;;;5070160;28;20047;-70
2023/01/22 01:48:02;;;;;;;9.05;6.18;;;;;;;;;;5057739;28;20047;-70
2023/01/22 01:50:28;;;;;;;8.38;5.68;;;;;;;;;;5061612;28;20141;-69
2023/01/22 01:52:55;;;;;;;7.35;5.93;;;;;;;;;;5063023;28;20119;-70
2023/01/22 01:55:24;;;;;;;11.90;6.18;;;;;;;;;;5063879;28;20456;-70
2023/01/22 01:57:50;;;;;;;11.45;4.60;;;;;;;;;;5059481;28;20111;-70
2023/01/22 02:00:17;;;;;;;8.82;4.90;;;;;;;;;;5058413;28;20512;-70
2023/01/22 02:02:44;;;;;;;8.98;5.10;;;;;;;;;;5062708;28;20044;-70
2023/01/22 02:05:10;;;;;;;12.10;5.53;;;;;;;;;;5061448;28;20035;-70
2023/01/22 02:07:36;;;;;;;8.10;5.57;;;;;;;;;;5063735;28;20041;-70
2023/01/22 02:10:05;;;;;;;10.57;5.63;;;;;;;;;;5058404;28;20044;-71
2023/01/22 02:12:32;;;;;;;9.45;5.70;;;;;;;;;;5064779;28;20028;-70
2023/01/22 02:15:00;;;;;;;10.65;6.18;;;;;;;;;;5061018;28;20601;-70
2023/01/22 02:17:26;;;;;;;9.55;5.55;;;;;;;;;;5060379;28;20441;-70
2023/01/22 02:19:52;;;;;;;9.23;6.50;;;;;;;;;;5064064;28;20072;-70
2023/01/22 02:22:37;;;;;;;13.75;7.57;;;;;;;;;;5054545;28;20045;-70
2023/01/22 02:25:04;;;;;;;13.10;8.15;;;;;;;;;;5059995;28;20526;-70
2023/01/22 02:27:30;;;;;;;14.75;6.88;;;;;;;;;;5062187;28;20442;-70
2023/01/22 02:29:56;;;;;;;12.80;6.95;;;;;;;;;;5063839;28;20044;-70
2023/01/22 02:32:22;;;;;;;7.72;5.75;;;;;;;;;;5067543;28;20123;-69
2023/01/22 02:34:49;;;;;;;11.50;6.85;;;;;;;;;;5061034;28;20039;-70
2023/01/22 02:37:15;;;;;;;11.43;6.38;;;;;;;;;;5063667;28;20390;-70
2023/01/22 02:39:41;;;;;;;9.48;5.53;;;;;;;;;;5057601;28;20032;-70
2023/01/22 02:42:07;;;;;;;8.13;5.50;;;;;;;;;;5061072;28;20510;-70
2023/01/22 02:44:33;;;;;;;9.73;5.82;;;;;;;;;;5067454;28;20383;-70
2023/01/22 02:47:00;;;;;;;12.30;5.47;;;;;;;;;;5059552;28;20104;-70
2023/01/22 02:49:26;;;;;;;7.93;4.68;;;;;;;;;;5062341;28;20610;-70
2023/01/22 02:51:52;;;;;;;8.15;5.22;;;;;;;;;;5062620;28;20025;-70
2023/01/22 02:54:18;;;;;;;8.38;4.95;;;;;;;;;;5058487;28;20035;-70
2023/01/22 02:56:44;;;;;;;8.07;5.07;;;;;;;;;;5064871;28;20051;-70
2023/01/22 02:59:11;;;;;;;10.85;5.50;;;;;;;;;;5066931;28;20046;-69
2023/01/22 03:01:37;;;;;;;8.15;4.90;;;;;;;;;;5063210;28;20032;-70
2023/01/22 03:04:10;;;;;;;8.25;4.85;;;;;;;;;;5062736;28;20123;-69
2023/01/22 03:06:37;;;;;;;7.25;4.10;;;;;;;;;;5063533;28;20043;-70
2023/01/22 03:09:03;;;;;;;7.60;4.63;;;;;;;;;;5065133;28;20084;-70
2023/01/22 03:11:30;;;;;;;8.15;4.68;;;;;;;;;;5064321;28;20508;-70
2023/01/22 03:22:14;;;;;;;12.73;5.05;;;;;;;;;;5069443;28;20055;-70
2023/01/22 03:24:40;;;;;;;6.95;4.00;;;;;;;;;;5064231;28;20106;-69
2023/01/22 03:27:06;;;;;;;5.53;3.55;;;;;;;;;;5059974;28;20036;-69
2023/01/22 03:29:37;;;;;;;11.13;4.80;;;;;;;;;;5059070;28;20043;-70
2023/01/22 03:32:03;;;;;;;6.82;4.43;;;;;;;;;;5064364;28;20445;-69
2023/01/22 03:34:29;;;;;;;7.28;4.30;;;;;;;;;;5059889;28;20123;-70
2023/01/22 03:36:56;;;;;;;7.95;4.07;;;;;;;;;;5065374;28;20421;-70
2023/01/22 03:39:22;;;;;;;8.15;3.88;;;;;;;;;;5066326;28;20039;-70
2023/01/22 03:41:48;;;;;;;7.95;4.53;;;;;;;;;;5068531;28;20040;-70
2023/01/22 03:44:14;;;;;;;7.95;3.97;;;;;;;;;;5066913;28;20502;-70
2023/01/22 03:46:40;;;;;;;11.55;3.97;;;;;;;;;;5060109;28;20068;-70
2023/01/22 03:49:07;;;;;;;5.18;3.47;;;;;;;;;;5070124;28;20036;-70
2023/01/22 03:51:33;;;;;;;5.85;4.18;;;;;;;;;;5068180;28;20029;-70
2023/01/22 03:53:59;;;;;;;9.15;4.43;;;;;;;;;;5067774;28;20039;-70
2023/01/22 03:56:26;;;;;;;7.82;4.57;;;;;;;;;;5061445;28;20368;-70
2023/01/22 03:58:52;;;;;;;6.30;4.00;;;;;;;;;;5068168;28;20517;-70
2023/01/22 04:01:20;;;;;;;5.25;3.53;;;;;;;;;;5067185;28;20559;-70
2023/01/22 04:03:46;;;;;;;6.20;3.42;;;;;;;;;;5067402;28;20478;-70
2023/01/22 04:06:13;;;;;;;4.93;3.60;;;;;;;;;;5059198;28;20540;-70
2023/01/22 04:08:40;;;;;;;7.35;3.35;;;;;;;;;;5076198;28;20033;-70
2023/01/22 04:11:07;;;;;;;6.82;3.03;;;;;;;;;;5068694;28;20476;-70
2023/01/22 04:13:34;;;;;;;6.05;3.45;;;;;;;;;;5061746;28;20054;-70
2023/01/22 04:16:00;;;;;;;7.35;3.50;;;;;;;;;;5058387;28;20049;-70
2023/01/22 04:18:26;;;;;;;5.75;3.42;;;;;;;;;;5059766;28;20041;-70
2023/01/22 04:20:52;;;;;;;9.38;4.47;;;;;;;;;;5071388;28;20098;-70
2023/01/22 04:23:19;;;;;;;8.43;3.67;;;;;;;;;;5057404;28;20028;-70
2023/01/22 04:25:45;;;;;;;7.38;3.47;;;;;;;;;;5062632;28;20399;-70
2023/01/22 04:28:13;;;;;;;6.20;3.42;;;;;;;;;;5060713;28;20036;-70
2023/01/22 04:30:39;;;;;;;7.03;3.40;;;;;;;;;;5062785;28;20526;-70
2023/01/22 04:33:06;;;;;;;6.03;4.30;;;;;;;;;;5058203;28;20033;-70
2023/01/22 04:35:32;;;;;;;9.13;4.55;;;;;;;;;;5066050;28;20394;-70
2023/01/22 04:37:58;;;;;;;4.85;3.80;;;;;;;;;;5039326;28;20047;-70
2023/01/22 04:40:24;;;;;;;9.13;4.32;;;;;;;;;;5067101;28;20036;-70
2023/01/22 04:42:51;;;;;;;8.75;3.90;;;;;;;;;;5065104;28;20090;-70
2023/01/22 04:45:17;;;;;;;5.63;4.00;;;;;;;;;;5062545;28;20533;-70
2023/01/22 04:47:44;;;;;;;8.65;3.90;;;;;;;;;;5062138;28;20449;-70
2023/01/22 04:50:17;;;;;;;7.63;3.85;;;;;;;;;;5064541;28;20037;-70
2023/01/22 04:52:43;;;;;;;6.63;4.47;;;;;;;;;;5060186;28;20112;-70
2023/01/22 04:55:10;;;;;;;5.82;3.58;;;;;;;;;;5057856;28;20033;-70
2023/01/22 04:57:36;;;;;;;10.27;3.80;;;;;;;;;;5064732;28;20090;-70
2023/01/22 05:00:03;;;;;;;6.38;4.25;;;;;;;;;;5058152;28;20049;-70
2023/01/22 05:02:29;;;;;;;8.38;3.90;;;;;;;;;;5069899;28;20097;-70
2023/01/22 05:04:55;;;;;;;8.75;4.00;;;;;;;;;;5058766;28;20499;-70
2023/01/22 05:07:21;;;;;;;7.28;4.45;;;;;;;;;;5060635;28;20028;-70
2023/01/22 05:09:47;;;;;;;9.15;3.85;;;;;;;;;;5062531;28;20044;-69
2023/01/22 05:12:13;;;;;;;7.90;4.50;;;;;;;;;;5064600;28;20490;-70
2023/01/22 05:14:40;;;;;;;10.23;4.72;;;;;;;;;;5063183;28;20703;-70
2023/01/22 05:17:06;;;;;;;6.75;4.43;;;;;;;;;;5049995;28;20037;-70
2023/01/22 05:19:34;;;;;;;5.10;2.97;;;;;;;;;;5064679;28;20052;-70
2023/01/22 05:22:00;;;;;;;7.07;4.25;;;;;;;;;;5060919;28;20060;-70
2023/01/22 05:24:26;;;;;;;5.65;3.92;;;;;;;;;;5060350;28;20063;-70
2023/01/22 05:26:52;;;;;;;9.35;4.05;;;;;;;;;;5051182;28;20131;-70
2023/01/22 05:29:24;;;;;;;11.27;3.60;;;;;;;;;;5071494;28;20081;-70
2023/01/22 05:31:50;;;;;;;7.22;4.07;;;;;;;;;;5065507;28;20500;-70
2023/01/22 05:34:17;;;;;;;9.45;4.07;;;;;;;;;;5062670;28;20124;-69
2023/01/22 05:36:43;;;;;;;10.02;4.03;;;;;;;;;;5061822;28;20037;-71
2023/01/22 05:39:09;;;;;;;5.40;3.08;;;;;;;;;;5059058;28;20040;-71
2023/01/22 05:41:35;;;;;;;6.07;3.13;;;;;;;;;;5067105;28;20048;-69
2023/01/22 05:44:05;;;;;;;5.53;3.58;;;;;;;;;;5060335;28;20075;-70
2023/01/22 05:46:31;;;;;;;10.20;4.03;;;;;;;;;;5065044;28;20077;-70
2023/01/22 05:48:57;;;;;;;7.32;4.30;;;;;;;;;;5058231;28;20045;-70
2023/01/22 05:51:24;;;;;;;7.55;3.97;;;;;;;;;;5068342;28;20036;-70
2023/01/22 05:53:50;;;;;;;6.35;4.13;;;;;;;;;;5055918;28;20421;-70
2023/01/22 05:56:17;;;;;;;5.97;4.03;;;;;;;;;;5066992;28;20123;-70
2023/01/22 05:58:43;;;;;;;5.32;3.55;;;;;;;;;;5051599;28;20045;-70
2023/01/22 06:01:09;;;;;;;8.18;4.28;;;;;;;;;;5061730;28;20056;-70
2023/01/22 06:03:36;;;;;;;7.00;4.20;;;;;;;;;;5063204;28;20306;-70
2023/01/22 06:06:03;;;;;;;6.43;3.75;;;;;;;;;;5066797;28;20051;-69
2023/01/22 06:08:29;;;;;;;9.02;3.88;;;;;;;;;;5060598;28;20051;-70
2023/01/22 06:10:59;;;;;;;7.88;4.40;;;;;;;;;;5070499;28;20052;-70
2023/01/22 06:13:26;;;;;;;8.23;3.80;;;;;;;;;;5060484;28;20036;-70
2023/01/22 06:15:53;;;;;;;6.50;3.22;;;;;;;;;;5056178;28;20536;-70
2023/01/22 06:18:20;;;;;;;7.40;2.92;;;;;;;;;;5052988;28;20541;-70
2023/01/22 06:20:46;;;;;;;7.05;4.57;;;;;;;;;;5064153;28;20457;-69
2023/01/22 06:23:13;;;;;;;9.80;3.72;;;;;;;;;;5058683;28;20217;-69
2023/01/22 06:25:39;;;;;;;6.07;3.72;;;;;;;;;;5053850;28;20043;-70
2023/01/22 06:28:05;;;;;;;6.60;3.55;;;;;;;;;;5067675;28;20037;-70
2023/01/22 06:30:31;;;;;;;6.70;3.47;;;;;;;;;;5054269;28;20037;-69
2023/01/22 06:32:57;;;;;;;6.95;4.05;;;;;;;;;;5050191;28;20423;-70
2023/01/22 06:35:23;;;;;;;6.75;3.38;;;;;;;;;;5059981;28;20435;-70
2023/01/22 06:37:50;;;;;;;6.93;3.22;;;;;;;;;;5058301;28;20032;-70
2023/01/22 06:40:16;;;;;;;6.43;3.80;;;;;;;;;;5054320;28;20090;-70
2023/01/22 06:42:42;;;;;;;5.35;3.40;;;;;;;;;;5056584;28;20068;-70
2023/01/22 06:45:08;;;;;;;4.72;2.95;;;;;;;;;;5065123;28;20511;-69
2023/01/22 06:47:35;;;;;;;5.03;3.30;;;;;;;;;;5061852;28;20499;-70
2023/01/22 06:50:01;;;;;;;6.00;2.95;;;;;;;;;;5063145;28;20956;-70
2023/01/22 06:52:27;;;;;;;5.55;2.95;;;;;;;;;;5063756;28;20455;-70
2023/01/22 06:54:53;;;;;;;5.68;3.97;;;;;;;;;;5063514;28;20062;-70
2023/01/22 06:57:19;;;;;;;5.10;2.85;;;;;;;;;;5063688;28;20132;-71
2023/01/22 06:59:45;;;;;;;6.75;3.30;;;;;;;;;;5067626;28;20598;-69
2023/01/22 07:02:16;;;;;;;5.40;3.83;;;;;;;;;;5056808;28;20129;-70
2023/01/22 07:04:42;;;;;;;5.82;3.50;;;;;;;;;;5054676;28;20334;-69
2023/01/22 07:07:08;;;;;;;18.50;3.13;;;;;;;;;;5058002;28;20072;-70
2023/01/22 07:09:35;;;;;;;5.57;3.08;;;;;;;;;;5053957;28;20254;-70
2023/01/22 07:12:01;;;;;;;10.75;3.60;;;;;;;;;;5060287;28;20029;-70
2023/01/22 07:14:29;;;;;;;5.15;3.40;;;;;;;;;;5063444;28;20044;-70
2023/01/22 07:16:55;;;;;;;9.98;4.32;;;;;;;;;;5061902;28;20041;-70
2023/01/22 07:19:22;;;;;;;6.57;3.58;;;;;;;;;;5064483;28;20041;-69
2023/01/22 07:21:48;;;;;;;7.22;3.75;;;;;;;;;;5060481;28;20040;-70
2023/01/22 07:24:14;;;;;;;10.57;3.75;;;;;;;;;;5052173;28;20037;-69
2023/01/22 07:26:42;;;;;;;5.13;3.15;;;;;;;;;;5054598;28;20040;-69
2023/01/22 07:29:09;;;;;;;4.07;2.97;;;;;;;;;;5054870;28;20045;-70
2023/01/22 07:31:35;;;;;;;5.40;3.35;;;;;;;;;;5056685;28;20041;-70
2023/01/22 07:34:01;;;;;;;5.35;3.53;;;;;;;;;;5068594;28;20052;-70
2023/01/22 07:36:27;;;;;;;6.43;4.20;;;;;;;;;;5052545;28;20037;-70
2023/01/22 07:38:54;;;;;;;6.80;3.15;;;;;;;;;;5057290;28;20512;-70
2023/01/22 07:41:20;;;;;;;5.15;3.08;;;;;;;;;;5058441;28;20398;-69
2023/01/22 07:43:48;;;;;;;8.55;3.10;;;;;;;;;;5062479;28;20634;-71
2023/01/22 07:46:14;;;;;;;7.15;3.22;;;;;;;;;;5055114;28;20483;-70
2023/01/22 07:48:40;;;;;;;8.70;2.85;;;;;;;;;;5050869;28;20242;-70
2023/01/22 07:51:07;;;;;;;5.57;2.80;;;;;;;;;;5058590;28;20032;-71
2023/01/22 07:53:34;;;;;;;5.68;3.13;;;;;;;;;;5062442;28;20036;-70
2023/01/22 07:56:04;;;;;;;5.10;3.15;;;;;;;;;;5063852;28;20041;-70
2023/01/22 07:58:30;;;;;;;11.25;4.28;;;;;;;;;;5059680;28;20044;-70
2023/01/22 08:00:57;;;;;;;5.75;3.15;;;;;;;;;;5065778;28;20036;-70
2023/01/22 08:03:23;;;;;;;4.13;2.72;;;;;;;;;;5055956;28;20078;-70
2023/01/22 08:05:49;;;;;;;6.35;3.00;;;;;;;;;;5061145;28;20040;-70
2023/01/22 08:08:16;;;;;;;4.38;3.10;;;;;;;;;;5056374;28;20839;-70
2023/01/22 08:10:43;;;;;;;7.18;3.80;;;;;;;;;;5067308;28;20063;-70
2023/01/22 08:13:09;;;;;;;5.15;3.08;;;;;;;;;;5061374;28;20051;-70
2023/01/22 08:15:36;;;;;;;5.28;3.10;;;;;;;;;;5058101;28;20028;-70
2023/01/22 08:18:02;;;;;;;9.93;3.40;;;;;;;;;;5054105;28;20124;-70
2023/01/22 08:20:28;;;;;;;4.65;2.85;;;;;;;;;;5060305;28;20142;-69
2023/01/22 08:22:58;;;;;;;4.60;2.65;;;;;;;;;;5057838;28;20521;-70
2023/01/22 08:25:25;;;;;;;7.32;3.45;;;;;;;;;;5056789;28;20031;-70
2023/01/22 08:27:51;;;;;;;8.02;3.50;;;;;;;;;;5059517;28;20075;-70
2023/01/22 08:30:17;;;;;;;4.95;3.35;;;;;;;;;;5058615;28;20039;-71
2023/01/22 08:32:44;;;;;;;6.05;2.60;;;;;;;;;;5063327;28;20029;-68
2023/01/22 08:35:11;;;;;;;5.35;3.00;;;;;;;;;;5057509;28;20037;-71
2023/01/22 08:37:37;;;;;;;10.05;3.75;;;;;;;;;;5057192;28;20258;-70
2023/01/22 08:40:04;;;;;;;11.10;4.20;;;;;;;;;;5053584;28;20473;-70
2023/01/22 08:42:30;;;;;;;6.88;3.95;;;;;;;;;;5068000;28;20049;-70
2023/01/22 08:44:57;;;;;;;7.50;3.83;;;;;;;;;;5053823;28;20119;-70
2023/01/22 08:47:23;;;;;;;4.00;2.80;;;;;;;;;;5070793;28;20041;-70
2023/01/22 08:49:49;;;;;;;5.55;3.70;;;;;;;;;;5053994;28;20493;-70
2023/01/22 08:52:16;;;;;;;8.13;3.78;;;;;;;;;;5057228;28;20037;-70
2023/01/22 08:54:42;;;;;;;7.43;3.17;;;;;;;;;;5056467;28;20045;-70
2023/01/22 08:57:08;;;;;;;6.13;3.95;;;;;;;;;;5057265;28;20426;-70
2023/01/22 08:59:34;;;;;;;5.55;2.90;;;;;;;;;;5065261;28;20521;-70
2023/01/22 09:02:00;;;;;;;5.90;3.45;;;;;;;;;;5053957;28;20127;-70
2023/01/22 09:04:27;;;;;;;6.72;4.38;;;;;;;;;;5059376;28;20032;-69
2023/01/22 09:06:54;;;;;;;6.43;4.15;;;;;;;;;;5061949;28;20053;-70
2023/01/22 09:09:20;;;;;;;6.35;3.70;;;;;;;;;;5064125;28;20193;-71
2023/01/22 09:11:46;;;;;;;5.78;3.72;;;;;;;;;;5054931;28;20207;-71
2023/01/22 09:14:13;;;;;;;6.50;4.10;;;;;;;;;;5056975;28;20029;-69
2023/01/22 09:16:39;;;;;;;8.07;4.68;;;;;;;;;;5056185;28;20494;-70
2023/01/22 09:19:06;;;;;;;6.13;4.15;;;;;;;;;;5060494;28;20123;-70
2023/01/22 09:21:32;;;;;;;6.47;4.32;;;;;;;;;;5056356;28;20049;-70
2023/01/22 09:23:59;;;;;;;5.00;4.18;;;;;;;;;;5062596;28;20525;-70
2023/01/22 09:26:25;;;;;;;6.10;3.83;;;;;;;;;;5051726;28;20538;-70
2023/01/22 09:28:51;;;;;;;5.50;4.00;;;;;;;;;;5054282;28;20040;-70
2023/01/22 09:31:17;;;;;;;6.60;4.63;;;;;;;;;;5057704;28;20041;-70
2023/01/22 09:33:44;;;;;;;7.95;4.55;;;;;;;;;;5060357;28;20573;-70
2023/01/22 09:36:12;;;;;;;7.28;4.45;;;;;;;;;;5062150;28;20075;-70
2023/01/22 09:38:38;;;;;;;15.98;4.80;;;;;;;;;;5073965;28;20151;-70
2023/01/22 09:41:11;;;;;;;6.10;4.57;;;;;;;;;;5062514;28;20417;-70
2023/01/22 09:43:45;;;;;;;7.35;4.70;;;;;;;;;;5065196;28;20537;-70
2023/01/22 09:46:31;;;;;;;7.75;6.13;;;;;;;;;;5062941;28;20089;-69
2023/01/22 09:49:02;;;;;;;9.32;5.07;;;;;;;;;;5063069;28;20544;-70
2023/01/22 09:51:28;;;;;;;7.07;4.90;;;;;;;;;;5065155;28;20117;-70
2023/01/22 09:53:58;;;;;;;9.55;4.78;;;;;;;;;;5060659;28;20052;-70
2023/01/22 09:56:29;;;;;;;6.70;5.18;;;;;;;;;;5063677;28;20043;-70
2023/01/22 09:58:57;;;;;;;10.65;5.50;;;;;;;;;;5060902;28;20040;-70
2023/01/22 10:01:24;;;;;;;8.75;5.07;;;;;;;;;;5049865;28;20105;-70
2023/01/22 10:03:52;;;;;;;9.13;5.35;;;;;;;;;;5048683;28;20268;-70
2023/01/22 10:06:20;;;;;;;5.55;4.10;;;;;;;;;;5050434;28;20041;-70
2023/01/22 10:09:14;;;;;;;7.22;5.28;;;;;;;;;;5057980;28;20049;-70
2023/01/22 10:11:40;;;;;;;7.00;4.82;;;;;;;;;;5053185;28;20110;-70
2023/01/22 10:14:08;;;;;;;6.93;4.47;;;;;;;;;;5047799;28;20052;-70
2023/01/22 10:16:34;;;;;;;9.35;5.05;;;;;;;;;;5051494;28;20497;-70
2023/01/22 10:19:02;;;;;;;8.38;4.70;;;;;;;;;;5048774;28;20052;-70
2023/01/22 10:21:33;;;;;;;5.93;4.80;;;;;;;;;;5057417;28;20057;-69
2023/01/22 10:23:59;;;;;;;7.47;4.82;;;;;;;;;;5062233;28;20056;-70
2023/01/22 10:26:50;;;;;;;7.00;5.30;;;;;;;;;;5052928;28;20106;-70
2023/01/22 10:29:29;;;;;;;11.45;5.57;;;;;;;;;;5051301;28;20134;-70
2023/01/22 10:31:59;;;;;;;9.73;5.28;;;;;;;;;;5057025;28;20040;-70
2023/01/22 10:34:31;;;;;;;8.93;5.55;;;;;;;;;;5041624;28;20041;-70
2023/01/22 10:37:01;;;;;;;6.65;4.80;;;;;;;;;;5052642;28;20490;-70
2023/01/22 10:39:28;;;;;;;13.25;5.18;;;;;;;;;;5050254;28;20194;-70
2023/01/22 10:42:00;;;;;;;8.20;5.40;;;;;;;;;;5054163;28;20544;-70
2023/01/22 10:44:26;;;;;;;8.48;5.25;;;;;;;;;;5059262;28;20032;-70
2023/01/22 10:46:54;;;;;;;7.45;5.47;;;;;;;;;;5063866;28;20190;-70
2023/01/22 10:49:22;;;;;;;6.55;4.57;;;;;;;;;;5062386;28;20045;-70
2023/01/22 10:51:58;;;;;;;10.43;5.82;;;;;;;;;;5060832;28;20678;-70
2023/01/22 10:54:42;;;;;;;10.68;4.40;;;;;;;;;;5058904;28;20478;-69
2023/01/22 10:57:19;;;;;;;7.03;4.75;;;;;;;;;;5039096;28;20505;-70
2023/01/22 10:59:49;;;;;;;6.20;3.85;;;;;;;;;;5056443;28;20534;-70
2023/01/22 11:02:22;;;;;;;8.27;4.07;;;;;;;;;;5055031;28;20158;-70
2023/01/22 11:04:50;;;;;;;6.60;4.22;;;;;;;;;;5061576;28;20525;-70
2023/01/22 11:07:21;;;;;;;9.07;4.18;;;;;;;;;;5062389;28;20135;-69
2023/01/22 11:10:06;;;;;;;7.28;4.35;;;;;;;;;;5058483;28;20047;-70
2023/01/22 11:12:37;;;;;;;8.77;5.07;;;;;;;;;;5055888;28;20509;-70
2023/01/22 11:15:26;;;;;;;7.15;5.07;;;;;;;;;;5056395;28;20040;-70
2023/01/22 11:17:55;;;;;;;6.55;4.72;;;;;;;;;;5050188;28;20083;-70
2023/01/22 11:20:21;;;;;;;5.13;4.10;;;;;;;;;;5062736;28;20056;-70
2023/01/22 11:22:53;;;;;;;7.13;4.78;;;;;;;;;;5059051;28;20514;-70
2023/01/22 11:25:20;;;;;;;6.28;4.07;;;;;;;;;;5061339;28;20040;-70
2023/01/22 11:27:55;;;;;;;6.43;3.72;;;;;;;;;;5060307;28;20040;-70
2023/01/22 11:30:33;;;;;;;8.80;5.18;;;;;;;;;;5061065;28;20051;-70
2023/01/22 11:33:28;;;;;;;9.13;5.80;;;;;;;;;;5063870;28;20138;-70
2023/01/22 11:36:01;;;;;;;6.00;4.57;;;;;;;;;;5059545;28;20044;-70
2023/01/22 11:38:30;;;;;;;7.13;4.63;;;;;;;;;;5055258;28;20548;-70
2023/01/22 11:40:56;;;;;;;7.75;5.28;;;;;;;;;;5062437;28;20068;-70
2023/01/22 11:43:25;;;;;;;5.35;4.00;;;;;;;;;;5065265;28;20123;-70
2023/01/22 11:46:06;;;;;;;6.03;4.13;;;;;;;;;;5060950;28;20059;-69
2023/01/22 11:48:41;;;;;;;6.78;4.20;;;;;;;;;;5064555;28;20053;-70
2023/01/22 11:51:23;;;;;;;7.50;4.82;;;;;;;;;;5058020;28;20040;-70
2023/01/22 11:54:08;;;;;;;8.10;4.95;;;;;;;;;;5050879;28;20238;-70
2023/01/22 11:56:34;;;;;;;6.07;4.35;;;;;;;;;;5052914;28;20037;-70
2023/01/22 11:59:00;;;;;;;5.47;4.50;;;;;;;;;;5055075;28;20414;-70
2023/01/22 12:01:26;;;;;;;7.55;4.60;;;;;;;;;;5051727;28;20462;-70
2023/01/22 12:04:11;;;;;;;8.18;5.00;;;;;;;;;;5053889;28;20041;-70
2023/01/22 12:06:40;;;;;;;5.78;4.28;;;;;;;;;;5059345;28;20036;-70
2023/01/22 12:09:09;;;;;;;7.03;5.07;;;;;;;;;;5062785;28;20058;-70
2023/01/22 12:11:49;;;;;;;8.65;5.28;;;;;;;;;;5052869;28;20037;-70
2023/01/22 12:14:50;;;;;;;9.10;5.78;;;;;;;;;;5059407;28;20040;-70
2023/01/22 12:17:24;;;;;;;9.70;4.68;;;;;;;;;;4995239;28;20125;-70
2023/01/22 12:20:16;;;;;;;5.63;4.10;;;;;;;;;;5053968;28;20159;-70
2023/01/22 12:23:17;;;;;;;7.43;4.32;;;;;;;;;;5061748;28;20052;-70
2023/01/22 12:25:50;;;;;;;8.98;6.75;;;;;;;;;;5024147;28;20588;-70
2023/01/22 12:28:16;;;;;;;;;;;;;;;;;;5054895;28;20127;-70
2023/01/22 12:30:57;;;;;;;7.55;4.85;;;;;;;;;;5060022;28;20243;-70
2023/01/22 12:33:25;;;;;;;11.50;5.72;;;;;;;;;;5054597;28;20041;-70
2023/01/22 12:35:52;;;;;;;8.32;5.60;;;;;;;;;;5059533;28;20105;-70
2023/01/22 12:38:34;;;;;;;8.48;6.60;;;;;;;;;;5062551;28;20102;-70
2023/01/22 12:41:03;;;;;;;8.45;4.60;;;;;;;;;;5061796;28;20540;-70
2023/01/22 12:43:49;;;;;;;8.70;5.07;;;;;;;;;;5060494;28;20409;-70
2023/01/22 12:46:31;;;;;;;8.43;4.50;;;;;;;;;;5061011;28;20651;-70
2023/01/22 12:49:03;;;;;;;8.48;5.53;;;;;;;;;;5061018;28;20037;-69
2023/01/22 12:51:35;;;;;;;8.60;5.35;;;;;;;;;;5067013;28;20055;-69
2023/01/22 12:54:19;;;;;;;8.10;5.23;;;;;;;;;;5065290;28;20083;-70
2023/01/22 12:56:46;;;;;;;7.45;5.47;;;;;;;;;;5063291;28;20038;-69
2023/01/22 12:59:33;;;;;;;9.70;6.05;;;;;;;;;;5060733;28;20041;-69
2023/01/22 13:02:03;;;;;;;9.77;5.47;;;;;;;;;;5055067;28;20103;-69
2023/01/22 13:04:31;;;;;;;9.52;5.38;;;;;;;;;;5056079;28;20048;-69
2023/01/22 13:07:04;;;;;;;11.82;5.40;;;;;;;;;;5061736;28;20483;-70
2023/01/22 13:09:34;;;;;;;6.68;4.57;;;;;;;;;;5074480;28;20040;-70
2023/01/22 13:12:08;;;;;;;7.22;4.50;;;;;;;;;;5054781;28;20072;-69
2023/01/22 13:14:34;;;;;;;7.38;4.35;;;;;;;;;;5057562;28;20082;-69
2023/01/22 13:17:02;;;;;;;7.80;4.60;;;;;;;;;;5062923;28;20440;-70
2023/01/22 13:19:43;;;;;;;6.88;3.63;;;;;;;;;;5056766;28;20475;-70
2023/01/22 13:22:13;;;;;;;8.30;4.65;;;;;;;;;;5058734;28;20044;-69
2023/01/22 13:24:47;;;;;;;7.38;4.15;;;;;;;;;;5057692;28;20112;-69
2023/01/22 13:27:20;;;;;;;6.82;5.00;;;;;;;;;;5061799;28;20588;-70
2023/01/22 13:29:46;;;;;;;6.70;4.35;;;;;;;;;;5058858;28;20055;-70
2023/01/22 13:32:18;;;;;;;7.45;4.30;;;;;;;;;;5042064;28;20407;-70
2023/01/22 13:34:44;;;;;;;7.82;4.60;;;;;;;;;;5063091;28;20082;-69
2023/01/22 13:37:23;;;;;;;9.02;4.43;;;;;;;;;;5057344;28;20441;-70
2023/01/22 13:39:49;;;;;;;7.00;4.47;;;;;;;;;;5062809;28;20040;-70
2023/01/22 13:42:15;;;;;;;6.97;4.65;;;;;;;;;;5058868;28;20062;-70
2023/01/22 13:44:47;;;;;;;5.95;4.50;;;;;;;;;;5058278;28;20033;-69
2023/01/22 13:47:31;;;;;;;8.20;4.33;;;;;;;;;;5057814;28;20037;-70
2023/01/22 13:49:58;;;;;;;7.07;3.95;;;;;;;;;;5063979;28;20048;-70
2023/01/22 13:52:24;;;;;;;6.00;4.05;;;;;;;;;;5060841;28;20501;-70
2023/01/22 13:55:02;;;;;;;7.60;4.57;;;;;;;;;;5054980;28;20044;-69
2023/01/22 13:57:28;;;;;;;8.48;4.75;;;;;;;;;;5061742;28;20036;-70
2023/01/22 13:59:58;;;;;;;7.57;5.18;;;;;;;;;;5064739;28;20047;-70
2023/01/22 14:02:29;;;;;;;8.43;5.00;;;;;;;;;;5064156;28;20102;-70
2023/01/22 14:04:55;;;;;;;10.07;5.47;;;;;;;;;;5063346;28;20060;-70
2023/01/22 14:07:32;;;;;;;8.32;4.00;;;;;;;;;;5059211;28;20135;-69
2023/01/22 14:10:10;;;;;;;8.68;4.65;;;;;;;;;;5062526;28;20051;-69
2023/01/22 14:12:36;;;;;;;8.35;4.70;;;;;;;;;;5062677;28;20425;-70
2023/01/22 14:15:13;;;;;;;9.63;5.80;;;;;;;;;;5061240;28;20486;-70
2023/01/22 14:17:39;;;;;;;6.90;3.97;;;;;;;;;;5053550;28;20101;-70
2023/01/22 14:20:06;;;;;;;6.82;4.70;;;;;;;;;;5064517;28;20059;-70
2023/01/22 14:22:32;;;;;;;8.65;5.13;;;;;;;;;;5063225;28;20044;-70
2023/01/22 14:24:58;;;;;;;9.07;5.28;;;;;;;;;;5061399;28;20038;-69
2023/01/22 14:27:28;;;;;;;7.18;4.30;;;;;;;;;;5057307;28;20078;-69
2023/01/22 14:29:55;;;;;;;14.27;6.18;;;;;;;;;;5062294;28;20088;-70
2023/01/22 14:32:22;;;;;;;7.03;4.85;;;;;;;;;;5061910;28;20076;-70
2023/01/22 14:34:48;;;;;;;9.15;5.55;;;;;;;;;;5064309;28;20029;-69
2023/01/22 14:37:15;;;;;;;8.52;5.00;;;;;;;;;;5052864;28;20425;-69
2023/01/22 14:39:41;;;;;;;9.77;5.20;;;;;;;;;;5052617;28;20037;-69
2023/01/22 14:42:08;;;;;;;10.43;6.20;;;;;;;;;;5064460;28;20125;-70
2023/01/22 14:44:35;;;;;;;12.25;7.32;;;;;;;;;;5059731;28;20464;-69
2023/01/22 14:47:02;;;;;;;12.13;6.47;;;;;;;;;;5061899;28;20032;-70
2023/01/22 14:49:29;;;;;;;12.43;6.68;;;;;;;;;;5058614;28;20055;-69
2023/01/22 14:51:55;;;;;;;10.18;6.07;;;;;;;;;;5062201;28;20041;-69
2023/01/22 14:54:21;;;;;;;13.38;8.00;;;;;;;;;;5060463;28;20036;-69
2023/01/22 14:56:47;;;;;;;15.60;8.18;;;;;;;;;;5069407;28;20131;-69
2023/01/22 14:59:14;;;;;;;16.50;9.32;;;;;;;;;;5064055;28;20083;-70